メインページ
METAR-TAF:

METAR-TAF

空港 :

ジンナー国際空港

カラチ, パキスタン

緯度: 24-54N, 経度: 067-08E, 海抜: 21m

現時点の気象観測

当レポートは35分前の17:59(UTC)に作成
南西の風 10kt
気温 28°C
湿度 74%
気圧 1002 hPa
視程: 5000m
高度2000ftの雲は散在している
高度3000ftの千切れ雲あり

METAR: OPKC 151759Z 22010KT 5000 FU SCT020 BKN030 28/23 Q1002 NOSIG

時間: 23:34 (18:34 UTC)

予報

当レポートは2時間34分前の16:00(UTC)に作成
予報は15日の 18時(UTC)から 16日の 24時(UTC)まで有効
南西の風 10kt、最大20ktの突風を伴う
視程: 4000m
高度2500ftの千切れ雲あり
煙霧
15日の 23時(UTC)から 16日の 03時(UTC)まで一時的に
西/南西の風 8kt
視程: 4000m
高度1800ftの雲は散在している
高度2500ftの千切れ雲あり
霧雨
16日の 0600時(UTC)から
南西の風 10kt、最大20ktの突風を伴う
視程: 5000m
高度2500ftの千切れ雲あり
16日の 21時(UTC)から 16日の 24時(UTC)まで一時的に
西/南西の風 8kt
視程: 4000m
高度1800ftの雲は散在している
高度2500ftの千切れ雲あり
霧雨

TAF: OPKC 151600Z 1518/1624 23010G20KT 4000 HZ BKN025 TEMPO 1523/1603 25008KT 4000 DZ SCT018 BKN025 FM160600 23010G20KT 5000 BKN025 TEMPO 1621/1624 25008KT 4000 DZ SCT018 BKN025

4,000以上の空港の気象観測と天気予報(METAR報とTAF報)

利用可能な観測所は地図上に黄色い丸と赤い丸で示す。

丸の上にカーソルを重ねると観測所名を参照できる。

次にクリックすると気象観測と天気予報を参照できる。

マップの切り替え:黒色「×」印の緑ボタンをクリックして拡大、「-」印の緑ボタンをクリックして縮小、緑色の三角印をクリックして隣りの地図に切り替え


METAR-TAF: